TAF KPRC
KPRC 090520Z 0906/1006 18006KT P6SM SCT030 FM091000 19007KT P6SM BKN030 FM091500 17011G19KT P6SM BKN035 FM091900 20018G30KT 6SM -SHRA BR SCT020 BKN030 FM100200 23013G21KT 2SM -SHRA BR OVC010=
METAR KPRC
WC KPRC
WS KPRC
WV KPRC